sensor_id;sensor_type;location;lat;lon;timestamp;pressure;altitude;pressure_sealevel;temperature;humidity
57442;BME280;43284;47.042;15.498;2023-05-28T00:01:59;97435.66;;;10.23;84.83
57442;BME280;43284;47.042;15.498;2023-05-28T00:04:25;97420.94;;;10.20;84.57
57442;BME280;43284;47.042;15.498;2023-05-28T00:06:51;97431.59;;;10.16;84.54
57442;BME280;43284;47.042;15.498;2023-05-28T00:09:19;97420.44;;;10.12;84.94
57442;BME280;43284;47.042;15.498;2023-05-28T00:11:45;97417.97;;;10.09;85.50
57442;BME280;43284;47.042;15.498;2023-05-28T00:14:10;97417.22;;;10.05;85.79
57442;BME280;43284;47.042;15.498;2023-05-28T00:16:36;97422.13;;;10.13;88.46
57442;BME280;43284;47.042;15.498;2023-05-28T00:19:03;97411.34;;;10.21;90.89
57442;BME280;43284;47.042;15.498;2023-05-28T00:21:31;97419.19;;;10.21;89.57
57442;BME280;43284;47.042;15.498;2023-05-28T00:23:59;97413.47;;;10.13;86.79
57442;BME280;43284;47.042;15.498;2023-05-28T00:26:24;97409.47;;;10.04;86.21
57442;BME280;43284;47.042;15.498;2023-05-28T00:28:51;97409.53;;;10.02;86.11
57442;BME280;43284;47.042;15.498;2023-05-28T00:31:17;97405.28;;;10.00;87.96
57442;BME280;43284;47.042;15.498;2023-05-28T00:33:42;97410.63;;;9.97;87.71
57442;BME280;43284;47.042;15.498;2023-05-28T00:36:09;97407.38;;;9.92;86.57
57442;BME280;43284;47.042;15.498;2023-05-28T00:38:36;97404.91;;;9.88;86.43
57442;BME280;43284;47.042;15.498;2023-05-28T00:41:02;97398.09;;;9.84;86.83
57442;BME280;43284;47.042;15.498;2023-05-28T00:43:27;97399.94;;;9.82;88.84
57442;BME280;43284;47.042;15.498;2023-05-28T00:45:56;97398.81;;;9.88;90.35
57442;BME280;43284;47.042;15.498;2023-05-28T00:48:23;97387.41;;;9.90;90.47
57442;BME280;43284;47.042;15.498;2023-05-28T00:50:49;97383.47;;;9.80;88.46
57442;BME280;43284;47.042;15.498;2023-05-28T00:53:15;97382.84;;;9.75;88.13
57442;BME280;43284;47.042;15.498;2023-05-28T00:55:41;97386.81;;;9.84;91.38
57442;BME280;43284;47.042;15.498;2023-05-28T00:58:07;97381.31;;;9.90;91.56
57442;BME280;43284;47.042;15.498;2023-05-28T01:00:33;97384.06;;;9.87;90.05
57442;BME280;43284;47.042;15.498;2023-05-28T01:03:02;97378.13;;;9.83;88.88
57442;BME280;43284;47.042;15.498;2023-05-28T01:05:28;97374.06;;;9.76;87.51
57442;BME280;43284;47.042;15.498;2023-05-28T01:07:58;97367.28;;;9.72;88.53
57442;BME280;43284;47.042;15.498;2023-05-28T01:10:26;97366.53;;;9.68;87.45
57442;BME280;43284;47.042;15.498;2023-05-28T01:12:52;97366.75;;;9.64;88.47
57442;BME280;43284;47.042;15.498;2023-05-28T01:15:19;97365.94;;;9.62;88.42
57442;BME280;43284;47.042;15.498;2023-05-28T01:17:44;97364.47;;;9.56;88.48
57442;BME280;43284;47.042;15.498;2023-05-28T01:20:11;97361.13;;;9.53;88.46
57442;BME280;43284;47.042;15.498;2023-05-28T01:22:38;97362.66;;;9.58;91.59
57442;BME280;43284;47.042;15.498;2023-05-28T01:25:06;97361.84;;;9.56;89.74
57442;BME280;43284;47.042;15.498;2023-05-28T01:27:40;97352.50;;;9.51;88.62
57442;BME280;43284;47.042;15.498;2023-05-28T01:30:07;97356.53;;;9.37;88.21
57442;BME280;43284;47.042;15.498;2023-05-28T01:32:37;97360.31;;;9.30;88.79
57442;BME280;43284;47.042;15.498;2023-05-28T01:35:05;97354.50;;;9.23;88.93
57442;BME280;43284;47.042;15.498;2023-05-28T01:37:32;97352.78;;;9.22;89.03
57442;BME280;43284;47.042;15.498;2023-05-28T01:39:59;97347.56;;;9.22;90.45
57442;BME280;43284;47.042;15.498;2023-05-28T01:42:29;97343.47;;;9.37;94.12
57442;BME280;43284;47.042;15.498;2023-05-28T01:44:56;97329.59;;;9.37;92.91
57442;BME280;43284;47.042;15.498;2023-05-28T01:47:22;97341.91;;;9.33;91.74
57442;BME280;43284;47.042;15.498;2023-05-28T01:49:49;97333.97;;;9.36;93.05
57442;BME280;43284;47.042;15.498;2023-05-28T01:52:15;97331.78;;;9.47;94.50
57442;BME280;43284;47.042;15.498;2023-05-28T01:54:40;97328.38;;;9.45;92.05
57442;BME280;43284;47.042;15.498;2023-05-28T01:57:06;97334.16;;;9.32;89.56
57442;BME280;43284;47.042;15.498;2023-05-28T01:59:32;97328.59;;;9.19;89.68
57442;BME280;43284;47.042;15.498;2023-05-28T02:01:57;97339.50;;;9.06;90.27
57442;BME280;43284;47.042;15.498;2023-05-28T02:04:23;97335.22;;;9.05;89.15
57442;BME280;43284;47.042;15.498;2023-05-28T02:06:52;97331.91;;;9.00;89.42
57442;BME280;43284;47.042;15.498;2023-05-28T02:09:17;97328.66;;;8.95;89.44
57442;BME280;43284;47.042;15.498;2023-05-28T02:11:43;97327.13;;;8.90;90.02
57442;BME280;43284;47.042;15.498;2023-05-28T02:14:08;97330.66;;;8.89;91.08
57442;BME280;43284;47.042;15.498;2023-05-28T02:16:45;97328.19;;;8.85;91.44
57442;BME280;43284;47.042;15.498;2023-05-28T02:19:10;97330.09;;;9.02;96.07
57442;BME280;43284;47.042;15.498;2023-05-28T02:21:37;97335.56;;;8.96;94.42
57442;BME280;43284;47.042;15.498;2023-05-28T02:24:02;97327.25;;;9.08;97.07
57442;BME280;43284;47.042;15.498;2023-05-28T02:26:28;97326.28;;;9.11;96.52
57442;BME280;43284;47.042;15.498;2023-05-28T02:28:54;97328.34;;;9.03;93.88
57442;BME280;43284;47.042;15.498;2023-05-28T02:31:19;97327.91;;;8.92;92.22
57442;BME280;43284;47.042;15.498;2023-05-28T02:33:45;97326.41;;;8.86;91.12
57442;BME280;43284;47.042;15.498;2023-05-28T02:36:11;97325.13;;;8.74;91.51
57442;BME280;43284;47.042;15.498;2023-05-28T02:38:40;97325.25;;;8.71;91.31
57442;BME280;43284;47.042;15.498;2023-05-28T02:41:06;97323.47;;;8.72;92.82
57442;BME280;43284;47.042;15.498;2023-05-28T02:43:32;97324.31;;;8.72;93.20
57442;BME280;43284;47.042;15.498;2023-05-28T02:45:58;97325.91;;;8.76;94.90
57442;BME280;43284;47.042;15.498;2023-05-28T02:48:23;97327.19;;;8.88;97.29
57442;BME280;43284;47.042;15.498;2023-05-28T02:50:49;97318.22;;;8.95;97.37
57442;BME280;43284;47.042;15.498;2023-05-28T02:53:14;97318.81;;;8.80;92.75
57442;BME280;43284;47.042;15.498;2023-05-28T02:55:40;97321.66;;;8.74;92.64
57442;BME280;43284;47.042;15.498;2023-05-28T02:58:06;97324.50;;;8.68;92.95
57442;BME280;43284;47.042;15.498;2023-05-28T03:00:31;97322.69;;;8.70;94.02
57442;BME280;43284;47.042;15.498;2023-05-28T03:02:57;97328.22;;;8.84;96.78
57442;BME280;43284;47.042;15.498;2023-05-28T03:05:22;97320.47;;;8.82;95.13
57442;BME280;43284;47.042;15.498;2023-05-28T03:07:48;97324.31;;;8.72;93.15
57442;BME280;43284;47.042;15.498;2023-05-28T03:10:14;97327.41;;;8.60;92.37
57442;BME280;43284;47.042;15.498;2023-05-28T03:12:40;97320.50;;;8.59;93.59
57442;BME280;43284;47.042;15.498;2023-05-28T03:15:09;97319.47;;;8.63;95.56
57442;BME280;43284;47.042;15.498;2023-05-28T03:17:34;97316.31;;;8.55;93.35
57442;BME280;43284;47.042;15.498;2023-05-28T03:20:00;97319.25;;;8.45;92.84
57442;BME280;43284;47.042;15.498;2023-05-28T03:22:25;97323.94;;;8.36;92.91
57442;BME280;43284;47.042;15.498;2023-05-28T03:24:51;97317.94;;;8.34;92.95
57442;BME280;43284;47.042;15.498;2023-05-28T03:27:16;97323.88;;;8.37;94.58
57442;BME280;43284;47.042;15.498;2023-05-28T03:29:42;97324.59;;;8.42;96.32
57442;BME280;43284;47.042;15.498;2023-05-28T03:32:07;97323.03;;;8.60;98.97
57442;BME280;43284;47.042;15.498;2023-05-28T03:34:33;97324.13;;;8.55;96.79
57442;BME280;43284;47.042;15.498;2023-05-28T03:36:59;97324.72;;;8.61;97.66
57442;BME280;43284;47.042;15.498;2023-05-28T03:39:24;97324.81;;;8.60;96.75
57442;BME280;43284;47.042;15.498;2023-05-28T03:41:50;97331.09;;;8.54;95.08
57442;BME280;43284;47.042;15.498;2023-05-28T03:44:16;97328.56;;;8.53;95.04
57442;BME280;43284;47.042;15.498;2023-05-28T03:46:42;97331.50;;;8.43;93.75
57442;BME280;43284;47.042;15.498;2023-05-28T03:49:08;97342.00;;;8.42;93.95
57442;BME280;43284;47.042;15.498;2023-05-28T03:51:33;97338.41;;;8.44;93.46
57442;BME280;43284;47.042;15.498;2023-05-28T03:54:01;97334.22;;;8.40;93.42
57442;BME280;43284;47.042;15.498;2023-05-28T03:56:27;97337.31;;;8.50;96.75
57442;BME280;43284;47.042;15.498;2023-05-28T03:58:52;97331.09;;;8.54;96.96
57442;BME280;43284;47.042;15.498;2023-05-28T04:01:18;97328.00;;;8.44;95.20
57442;BME280;43284;47.042;15.498;2023-05-28T04:03:43;97336.69;;;8.43;95.22
57442;BME280;43284;47.042;15.498;2023-05-28T04:06:09;97325.53;;;8.40;94.71
57442;BME280;43284;47.042;15.498;2023-05-28T04:08:35;97322.00;;;8.42;95.11
57442;BME280;43284;47.042;15.498;2023-05-28T04:11:01;97329.63;;;8.47;95.23
57442;BME280;43284;47.042;15.498;2023-05-28T04:13:27;97328.56;;;8.53;95.34
57442;BME280;43284;47.042;15.498;2023-05-28T04:15:52;97326.66;;;8.56;95.49
57442;BME280;43284;47.042;15.498;2023-05-28T04:18:18;97328.31;;;8.59;95.29
57442;BME280;43284;47.042;15.498;2023-05-28T04:20:43;97321.22;;;8.62;95.11
57442;BME280;43284;47.042;15.498;2023-05-28T04:23:09;97324.69;;;8.63;95.35
57442;BME280;43284;47.042;15.498;2023-05-28T04:25:35;97328.06;;;8.65;95.65
57442;BME280;43284;47.042;15.498;2023-05-28T04:28:02;97327.91;;;8.70;95.87
57442;BME280;43284;47.042;15.498;2023-05-28T04:30:28;97330.41;;;8.73;96.38
57442;BME280;43284;47.042;15.498;2023-05-28T04:32:53;97329.25;;;8.80;96.36
57442;BME280;43284;47.042;15.498;2023-05-28T04:35:19;97330.69;;;8.87;96.29
57442;BME280;43284;47.042;15.498;2023-05-28T04:37:44;97331.22;;;8.97;96.09
57442;BME280;43284;47.042;15.498;2023-05-28T04:40:10;97327.50;;;9.02;96.44
57442;BME280;43284;47.042;15.498;2023-05-28T04:42:40;97335.13;;;9.07;96.66
57442;BME280;43284;47.042;15.498;2023-05-28T04:45:09;97328.84;;;9.13;96.57
57442;BME280;43284;47.042;15.498;2023-05-28T04:47:38;97320.69;;;9.20;96.42
57442;BME280;43284;47.042;15.498;2023-05-28T04:50:04;97318.69;;;9.27;96.56
57442;BME280;43284;47.042;15.498;2023-05-28T04:52:32;97329.59;;;9.37;96.76
57442;BME280;43284;47.042;15.498;2023-05-28T04:55:01;97324.31;;;9.38;97.12
57442;BME280;43284;47.042;15.498;2023-05-28T04:57:26;97325.75;;;9.45;97.71
57442;BME280;43284;47.042;15.498;2023-05-28T04:59:52;97317.75;;;9.50;97.68
57442;BME280;43284;47.042;15.498;2023-05-28T05:02:17;97329.63;;;9.57;97.87
57442;BME280;43284;47.042;15.498;2023-05-28T05:04:47;97324.19;;;9.62;98.22
57442;BME280;43284;47.042;15.498;2023-05-28T05:07:13;97328.31;;;9.67;98.17
57442;BME280;43284;47.042;15.498;2023-05-28T05:09:39;97328.91;;;9.74;98.15
57442;BME280;43284;47.042;15.498;2023-05-28T05:12:05;97325.00;;;9.84;98.25
57442;BME280;43284;47.042;15.498;2023-05-28T05:14:31;97335.09;;;9.92;97.85
57442;BME280;43284;47.042;15.498;2023-05-28T05:16:57;97328.63;;;10.01;98.02
57442;BME280;43284;47.042;15.498;2023-05-28T05:19:22;97330.97;;;10.07;97.86
57442;BME280;43284;47.042;15.498;2023-05-28T05:21:48;97335.78;;;10.16;97.37
57442;BME280;43284;47.042;15.498;2023-05-28T05:24:14;97334.53;;;10.25;96.39
57442;BME280;43284;47.042;15.498;2023-05-28T05:26:39;97341.09;;;10.35;95.70
57442;BME280;43284;47.042;15.498;2023-05-28T05:29:05;97338.22;;;10.41;93.86
57442;BME280;43284;47.042;15.498;2023-05-28T05:31:30;97340.25;;;10.54;93.64
57442;BME280;43284;47.042;15.498;2023-05-28T05:33:56;97341.59;;;10.62;92.90
57442;BME280;43284;47.042;15.498;2023-05-28T05:36:22;97336.88;;;10.70;91.98
57442;BME280;43284;47.042;15.498;2023-05-28T05:38:47;97341.59;;;10.81;91.28
57442;BME280;43284;47.042;15.498;2023-05-28T05:41:13;97334.53;;;11.02;92.09
57442;BME280;43284;47.042;15.498;2023-05-28T05:43:38;97331.06;;;11.19;91.70
57442;BME280;43284;47.042;15.498;2023-05-28T05:46:04;97339.19;;;11.32;89.45
57442;BME280;43284;47.042;15.498;2023-05-28T05:48:30;97336.28;;;11.38;86.18
57442;BME280;43284;47.042;15.498;2023-05-28T05:50:55;97336.22;;;11.57;87.55
57442;BME280;43284;47.042;15.498;2023-05-28T05:53:22;97332.97;;;11.69;85.61
57442;BME280;43284;47.042;15.498;2023-05-28T05:55:48;97337.06;;;11.75;85.45
57442;BME280;43284;47.042;15.498;2023-05-28T05:58:14;97332.19;;;11.85;84.04
57442;BME280;43284;47.042;15.498;2023-05-28T06:00:40;97331.06;;;11.90;83.27
57442;BME280;43284;47.042;15.498;2023-05-28T06:03:06;97331.81;;;12.10;82.32
57442;BME280;43284;47.042;15.498;2023-05-28T06:05:33;97325.91;;;12.22;80.64
57442;BME280;43284;47.042;15.498;2023-05-28T06:07:58;97328.91;;;12.32;81.01
57442;BME280;43284;47.042;15.498;2023-05-28T06:10:24;97331.88;;;12.42;80.70
57442;BME280;43284;47.042;15.498;2023-05-28T06:12:49;97333.69;;;12.57;80.15
57442;BME280;43284;47.042;15.498;2023-05-28T06:15:15;97327.97;;;12.66;79.97
57442;BME280;43284;47.042;15.498;2023-05-28T06:17:40;97325.00;;;12.72;79.00
57442;BME280;43284;47.042;15.498;2023-05-28T06:20:07;97332.72;;;12.75;77.66
57442;BME280;43284;47.042;15.498;2023-05-28T06:22:33;97337.53;;;12.83;77.08
57442;BME280;43284;47.042;15.498;2023-05-28T06:24:59;97330.16;;;12.90;75.61
57442;BME280;43284;47.042;15.498;2023-05-28T06:27:26;97336.03;;;12.95;75.34
57442;BME280;43284;47.042;15.498;2023-05-28T06:29:52;97329.88;;;13.26;74.12
57442;BME280;43284;47.042;15.498;2023-05-28T06:32:18;97329.81;;;13.28;74.49
57442;BME280;43284;47.042;15.498;2023-05-28T06:34:44;97328.56;;;13.35;75.08
57442;BME280;43284;47.042;15.498;2023-05-28T06:37:10;97332.50;;;13.42;75.10
57442;BME280;43284;47.042;15.498;2023-05-28T06:39:36;97341.75;;;13.49;75.38
57442;BME280;43284;47.042;15.498;2023-05-28T06:42:02;97341.88;;;13.62;75.75
57442;BME280;43284;47.042;15.498;2023-05-28T06:44:28;97343.09;;;13.71;75.43
57442;BME280;43284;47.042;15.498;2023-05-28T06:46:53;97336.22;;;13.84;75.55
57442;BME280;43284;47.042;15.498;2023-05-28T06:49:19;97336.78;;;13.89;75.84
57442;BME280;43284;47.042;15.498;2023-05-28T06:51:45;97335.56;;;13.95;75.54
57442;BME280;43284;47.042;15.498;2023-05-28T06:54:10;97329.66;;;14.06;75.03
57442;BME280;43284;47.042;15.498;2023-05-28T06:56:36;97334.28;;;14.16;75.14
57442;BME280;43284;47.042;15.498;2023-05-28T06:59:02;97328.66;;;14.22;74.56
57442;BME280;43284;47.042;15.498;2023-05-28T07:01:27;97334.41;;;14.29;74.22
57442;BME280;43284;47.042;15.498;2023-05-28T07:03:53;97332.22;;;14.36;72.58
57442;BME280;43284;47.042;15.498;2023-05-28T07:06:18;97329.69;;;14.49;70.94
57442;BME280;43284;47.042;15.498;2023-05-28T07:08:44;97337.81;;;14.60;71.90
57442;BME280;43284;47.042;15.498;2023-05-28T07:11:13;97334.03;;;14.64;71.07
57442;BME280;43284;47.042;15.498;2023-05-28T07:13:39;97336.09;;;14.73;71.77
57442;BME280;43284;47.042;15.498;2023-05-28T07:16:06;97328.56;;;14.81;72.50
57442;BME280;43284;47.042;15.498;2023-05-28T07:18:32;97324.81;;;14.86;71.42
57442;BME280;43284;47.042;15.498;2023-05-28T07:20:57;97334.13;;;14.91;71.02
57442;BME280;43284;47.042;15.498;2023-05-28T07:23:23;97326.56;;;14.99;69.18
57442;BME280;43284;47.042;15.498;2023-05-28T07:25:49;97316.09;;;15.12;71.16
57442;BME280;43284;47.042;15.498;2023-05-28T07:28:14;97319.91;;;15.21;70.56
57442;BME280;43284;47.042;15.498;2023-05-28T07:30:43;97325.53;;;15.29;70.75
57442;BME280;43284;47.042;15.498;2023-05-28T07:33:08;97331.34;;;15.34;68.33
57442;BME280;43284;47.042;15.498;2023-05-28T07:35:35;97325.03;;;15.37;68.59
57442;BME280;43284;47.042;15.498;2023-05-28T07:38:03;97329.06;;;15.42;68.09
57442;BME280;43284;47.042;15.498;2023-05-28T07:40:29;97315.59;;;15.47;68.20
57442;BME280;43284;47.042;15.498;2023-05-28T07:42:54;97320.16;;;15.58;65.75
57442;BME280;43284;47.042;15.498;2023-05-28T07:45:20;97320.66;;;15.63;66.01
57442;BME280;43284;47.042;15.498;2023-05-28T07:47:45;97314.84;;;15.72;63.89
57442;BME280;43284;47.042;15.498;2023-05-28T07:50:11;97307.56;;;15.89;66.29
57442;BME280;43284;47.042;15.498;2023-05-28T07:52:37;97301.56;;;15.99;66.09
57442;BME280;43284;47.042;15.498;2023-05-28T07:55:06;97302.66;;;16.10;64.87
57442;BME280;43284;47.042;15.498;2023-05-28T07:57:32;97295.44;;;16.24;62.21
57442;BME280;43284;47.042;15.498;2023-05-28T07:59:57;97293.34;;;16.30;61.11
57442;BME280;43284;47.042;15.498;2023-05-28T08:02:23;97295.75;;;16.33;60.96
57442;BME280;43284;47.042;15.498;2023-05-28T08:04:48;97293.34;;;16.42;59.96
57442;BME280;43284;47.042;15.498;2023-05-28T08:07:14;97297.13;;;16.51;59.73
57442;BME280;43284;47.042;15.498;2023-05-28T08:09:40;97294.16;;;16.56;60.18
57442;BME280;43284;47.042;15.498;2023-05-28T08:12:09;97296.25;;;16.63;61.09
57442;BME280;43284;47.042;15.498;2023-05-28T08:14:34;97287.91;;;16.69;59.74
57442;BME280;43284;47.042;15.498;2023-05-28T08:17:00;97286.72;;;16.74;57.82
57442;BME280;43284;47.042;15.498;2023-05-28T08:19:26;97279.31;;;16.79;59.67
57442;BME280;43284;47.042;15.498;2023-05-28T08:21:52;97284.16;;;16.98;60.15
57442;BME280;43284;47.042;15.498;2023-05-28T08:24:17;97277.47;;;17.05;58.42
57442;BME280;43284;47.042;15.498;2023-05-28T08:26:43;97279.91;;;17.08;58.57
57442;BME280;43284;47.042;15.498;2023-05-28T08:29:09;97279.41;;;17.14;59.59
57442;BME280;43284;47.042;15.498;2023-05-28T08:31:34;97278.63;;;17.25;58.09
57442;BME280;43284;47.042;15.498;2023-05-28T08:34:00;97275.16;;;17.24;55.81
57442;BME280;43284;47.042;15.498;2023-05-28T08:36:26;97272.31;;;17.27;54.13
57442;BME280;43284;47.042;15.498;2023-05-28T08:38:52;97275.81;;;17.39;58.25
57442;BME280;43284;47.042;15.498;2023-05-28T08:41:18;97268.28;;;17.46;58.36
57442;BME280;43284;47.042;15.498;2023-05-28T08:43:44;97267.59;;;17.55;56.09
57442;BME280;43284;47.042;15.498;2023-05-28T08:46:10;97262.09;;;17.58;56.18
57442;BME280;43284;47.042;15.498;2023-05-28T08:48:36;97260.16;;;17.60;54.15
57442;BME280;43284;47.042;15.498;2023-05-28T08:51:05;97262.47;;;17.65;56.64
57442;BME280;43284;47.042;15.498;2023-05-28T08:53:36;97262.06;;;17.82;58.33
57442;BME280;43284;47.042;15.498;2023-05-28T08:56:04;97258.69;;;17.91;57.73
57442;BME280;43284;47.042;15.498;2023-05-28T08:58:30;97258.25;;;18.09;54.02
57442;BME280;43284;47.042;15.498;2023-05-28T09:00:56;97252.94;;;18.20;50.44
57442;BME280;43284;47.042;15.498;2023-05-28T09:03:21;97249.22;;;18.23;53.70
57442;BME280;43284;47.042;15.498;2023-05-28T09:05:47;97248.38;;;18.22;51.13
57442;BME280;43284;47.042;15.498;2023-05-28T09:08:12;97249.59;;;18.18;50.41
57442;BME280;43284;47.042;15.498;2023-05-28T09:10:39;97248.75;;;18.06;47.39
57442;BME280;43284;47.042;15.498;2023-05-28T09:13:05;97251.25;;;18.08;46.86
57442;BME280;43284;47.042;15.498;2023-05-28T09:15:31;97235.75;;;18.15;50.84
57442;BME280;43284;47.042;15.498;2023-05-28T09:17:59;97235.75;;;18.26;50.93
57442;BME280;43284;47.042;15.498;2023-05-28T09:20:25;97236.72;;;18.36;50.31
57442;BME280;43284;47.042;15.498;2023-05-28T09:22:58;97228.53;;;18.39;46.35
57442;BME280;43284;47.042;15.498;2023-05-28T09:25:26;97226.81;;;18.49;46.70
57442;BME280;43284;47.042;15.498;2023-05-28T09:27:54;97231.16;;;18.62;50.91
57442;BME280;43284;47.042;15.498;2023-05-28T09:30:19;97223.06;;;18.74;48.54
57442;BME280;43284;47.042;15.498;2023-05-28T09:32:45;97219.31;;;18.88;49.37
57442;BME280;43284;47.042;15.498;2023-05-28T09:35:10;97215.72;;;18.78;47.54
57442;BME280;43284;47.042;15.498;2023-05-28T09:37:36;97222.31;;;18.95;48.23
57442;BME280;43284;47.042;15.498;2023-05-28T09:40:03;97214.75;;;18.90;47.21
57442;BME280;43284;47.042;15.498;2023-05-28T09:42:40;97212.09;;;18.90;45.69
57442;BME280;43284;47.042;15.498;2023-05-28T09:45:08;97200.34;;;19.04;47.05
57442;BME280;43284;47.042;15.498;2023-05-28T09:47:44;97206.53;;;19.05;48.09
57442;BME280;43284;47.042;15.498;2023-05-28T09:50:10;97202.56;;;18.99;45.87
57442;BME280;43284;47.042;15.498;2023-05-28T09:52:38;97204.06;;;19.13;47.55
57442;BME280;43284;47.042;15.498;2023-05-28T09:55:06;97197.03;;;19.23;47.80
57442;BME280;43284;47.042;15.498;2023-05-28T09:57:33;97195.03;;;19.37;46.12
57442;BME280;43284;47.042;15.498;2023-05-28T10:00:00;97198.16;;;19.42;48.12
57442;BME280;43284;47.042;15.498;2023-05-28T10:03:05;97196.47;;;19.83;49.61
57442;BME280;43284;47.042;15.498;2023-05-28T10:05:36;97195.94;;;19.89;46.49
57442;BME280;43284;47.042;15.498;2023-05-28T10:08:03;97189.59;;;20.01;47.44
57442;BME280;43284;47.042;15.498;2023-05-28T10:10:30;97193.22;;;20.00;47.42
57442;BME280;43284;47.042;15.498;2023-05-28T10:12:57;97180.97;;;20.09;45.85
57442;BME280;43284;47.042;15.498;2023-05-28T10:15:24;97187.56;;;20.14;44.72
57442;BME280;43284;47.042;15.498;2023-05-28T10:17:50;97177.47;;;20.08;45.12
57442;BME280;43284;47.042;15.498;2023-05-28T10:20:16;97179.84;;;20.11;46.55
57442;BME280;43284;47.042;15.498;2023-05-28T10:22:42;97178.78;;;20.24;46.48
57442;BME280;43284;47.042;15.498;2023-05-28T10:25:08;97177.25;;;20.31;47.00
57442;BME280;43284;47.042;15.498;2023-05-28T10:27:43;97173.25;;;20.36;46.80
57442;BME280;43284;47.042;15.498;2023-05-28T10:30:10;97169.28;;;20.31;43.02
57442;BME280;43284;47.042;15.498;2023-05-28T10:32:41;97167.41;;;20.52;46.88
57442;BME280;43284;47.042;15.498;2023-05-28T10:35:10;97166.28;;;20.55;42.63
57442;BME280;43284;47.042;15.498;2023-05-28T10:37:36;97164.75;;;20.52;43.25
57442;BME280;43284;47.042;15.498;2023-05-28T10:40:02;97156.88;;;20.31;41.91
57442;BME280;43284;47.042;15.498;2023-05-28T10:42:28;97162.97;;;20.12;41.77
57442;BME280;43284;47.042;15.498;2023-05-28T10:47:32;97158.56;;;20.42;46.42
57442;BME280;43284;47.042;15.498;2023-05-28T10:52:34;97150.56;;;20.83;43.80
57442;BME280;43284;47.042;15.498;2023-05-28T10:55:05;97155.19;;;21.10;47.89
57442;BME280;43284;47.042;15.498;2023-05-28T10:57:46;97148.31;;;21.27;45.73
57442;BME280;43284;47.042;15.498;2023-05-28T11:00:13;97143.28;;;21.24;44.95
57442;BME280;43284;47.042;15.498;2023-05-28T11:02:47;97154.03;;;21.51;46.88
57442;BME280;43284;47.042;15.498;2023-05-28T11:05:15;97158.75;;;21.77;47.54
57442;BME280;43284;47.042;15.498;2023-05-28T11:07:42;97155.25;;;21.76;46.61
57442;BME280;43284;47.042;15.498;2023-05-28T11:10:11;97156.75;;;21.89;45.86
57442;BME280;43284;47.042;15.498;2023-05-28T11:12:41;97152.97;;;21.91;45.80
57442;BME280;43284;47.042;15.498;2023-05-28T11:15:09;97149.88;;;21.96;46.04
57442;BME280;43284;47.042;15.498;2023-05-28T11:17:39;97151.69;;;21.95;42.43
57442;BME280;43284;47.042;15.498;2023-05-28T11:20:13;97153.56;;;21.75;40.57
57442;BME280;43284;47.042;15.498;2023-05-28T11:22:40;97136.38;;;21.70;40.14
57442;BME280;43284;47.042;15.498;2023-05-28T11:25:07;97134.59;;;21.60;40.84
57442;BME280;43284;47.042;15.498;2023-05-28T11:27:34;97138.84;;;21.81;44.41
57442;BME280;43284;47.042;15.498;2023-05-28T11:30:06;97138.38;;;21.95;46.17
57442;BME280;43284;47.042;15.498;2023-05-28T11:32:33;97134.25;;;22.11;45.01
57442;BME280;43284;47.042;15.498;2023-05-28T11:34:59;97132.75;;;22.36;46.03
57442;BME280;43284;47.042;15.498;2023-05-28T11:37:35;97130.06;;;22.63;43.69
57442;BME280;43284;47.042;15.498;2023-05-28T11:40:03;97130.97;;;22.72;44.03
57442;BME280;43284;47.042;15.498;2023-05-28T11:42:39;97125.78;;;22.89;43.86
57442;BME280;43284;47.042;15.498;2023-05-28T11:45:07;97124.28;;;22.86;42.20
57442;BME280;43284;47.042;15.498;2023-05-28T11:47:34;97122.84;;;22.92;40.37
57442;BME280;43284;47.042;15.498;2023-05-28T11:50:12;97119.63;;;23.06;44.27
57442;BME280;43284;47.042;15.498;2023-05-28T11:52:38;97117.34;;;23.29;44.71
57442;BME280;43284;47.042;15.498;2023-05-28T11:55:04;97125.66;;;23.52;45.73
57442;BME280;43284;47.042;15.498;2023-05-28T11:57:31;97119.00;;;23.56;44.50
57442;BME280;43284;47.042;15.498;2023-05-28T12:00:07;97119.06;;;23.64;42.43
57442;BME280;43284;47.042;15.498;2023-05-28T12:02:48;97118.25;;;23.64;41.19
57442;BME280;43284;47.042;15.498;2023-05-28T12:05:15;97104.41;;;23.69;38.26
57442;BME280;43284;47.042;15.498;2023-05-28T12:07:48;97103.84;;;23.83;37.65
57442;BME280;43284;47.042;15.498;2023-05-28T12:10:16;97111.88;;;23.39;39.45
57442;BME280;43284;47.042;15.498;2023-05-28T12:12:47;97112.09;;;23.72;40.66
57442;BME280;43284;47.042;15.498;2023-05-28T12:15:14;97106.34;;;23.84;38.30
57442;BME280;43284;47.042;15.498;2023-05-28T12:17:41;97105.94;;;23.97;41.35
57442;BME280;43284;47.042;15.498;2023-05-28T12:22:39;97100.91;;;24.37;39.07
57442;BME280;43284;47.042;15.498;2023-05-28T12:25:05;97099.44;;;24.51;40.90
57442;BME280;43284;47.042;15.498;2023-05-28T12:27:31;97099.22;;;24.44;39.50
57442;BME280;43284;47.042;15.498;2023-05-28T12:29:57;97085.78;;;24.54;35.30
57442;BME280;43284;47.042;15.498;2023-05-28T12:32:22;97086.25;;;24.57;37.67
57442;BME280;43284;47.042;15.498;2023-05-28T12:34:48;97087.78;;;24.52;40.05
57442;BME280;43284;47.042;15.498;2023-05-28T12:37:16;97100.16;;;24.69;45.10
57442;BME280;43284;47.042;15.498;2023-05-28T12:39:41;97090.47;;;24.76;41.37
57442;BME280;43284;47.042;15.498;2023-05-28T12:42:07;97084.97;;;24.86;40.54
57442;BME280;43284;47.042;15.498;2023-05-28T12:44:32;97078.78;;;24.94;36.15
57442;BME280;43284;47.042;15.498;2023-05-28T12:46:58;97075.78;;;24.97;35.86
57442;BME280;43284;47.042;15.498;2023-05-28T12:49:23;97078.59;;;25.03;37.61
57442;BME280;43284;47.042;15.498;2023-05-28T12:51:49;97084.47;;;25.07;42.02
57442;BME280;43284;47.042;15.498;2023-05-28T12:54:14;97079.81;;;25.25;40.83
57442;BME280;43284;47.042;15.498;2023-05-28T12:56:40;97070.28;;;25.31;38.07
57442;BME280;43284;47.042;15.498;2023-05-28T12:59:06;97068.84;;;24.45;36.48